Terminal Aerodrome Forecast
Issued by NWS

Home | Current Version | Previous Version | Text Only | Print | Product List | Glossary On
Versions: 1 2 3 4 5 6 7 8 9 10 11 12 13 14 15 16 17 18 19 20 21 22 23 24 25 26 27 28 29 30 31 32 33 34 35
000
FTUS43 KSGF 181300 AAA
TAFBBG
TAF AMD
KBBG 181356Z 1814/1912 10008KT 6SM -RA BKN005 OVC040
      TEMPO 1816/1818 SCT005 OVC020
     FM181800 10006KT P6SM SCT012 BKN020
     FM190300 VRB03KT 5SM BR SCT030 BKN250
     FM190600 VRB03KT 1SM BR OVC002=

USA.gov is the U.S. government's official web portal to all federal, state and local government web resources and services.